KDVOKRDD

Guest
Details From KDVO - GNOSS FLD
To KRDD - Redding Muni
Flight Number -
Tags generated
Created
Modified
Stats Distance 143 nm / 264 km
Max Altitude 9,200 ft / 2,804 m
Waypoints 3
Social Downloads 1
Likes 0
Share VATSIM

Download

Looking for another format? Having issues loading an existing format? Contact us
Advertisement - Login to hide

Notes

Basic altitude profile: - Ascent Rate: 2500ft/min - Ascent Speed: 250kts - Cruise Altitude: 35000ft - Cruise Speed: 420kts - Descent Rate: 1500ft/min - Descent Speed: 250kts

Route

KDVO GRENY KRDD

ID Type Via Altitude Latitude Longitude Leg Dist Tot Dist Heading (true) Name
O KDVO APT - 0 ft / 0 m 38.14360˚ -122.55612˚ - 0 nm - GNOSS FLD
GRENY FIX - 9,200 ft / 2,804 m 39.79118˚ -122.40369˚ 99 nm 99 nm 4° / 4° -
O KRDD APT - 0 ft / 0 m 40.50865˚ -122.29310˚ 43 nm 142 nm 7° / 7° Redding Muni

Altitude Profile

Advertisement - Login to hide

KDVO

Details ICAO KDVO
Name GNOSS FLD
Region United States
Timezone America/Los_Angeles (UTC-8.0)
Stats Elevation 2 ft / 1 m (AMSL)
Location 38.143602° -122.556123°
Runways 1
Magnetic Variation 13.606° E

METAR

KDVO 120515Z AUTO 00000KT 10SM CLR 04/02 A3033 RMK AO2

Decode

TAF

Not found

Departure Runways

ID Width Length Bearing (true) Bearing (mag) Surface Threshold Offset Overrun Length
13 75 ft / 23 m 3,304 ft / 1,007 m 148.57° 134.96° Asphalt 0 ft / 0 m 98 ft / 30 m
31 75 ft / 23 m 3,304 ft / 1,007 m 328.57° 314.96° Asphalt 0 ft / 0 m 125 ft / 38 m

KRDD

Details ICAO KRDD (RDD)
Name Redding Muni
Region United States
Timezone America/Los_Angeles (UTC-8.0)
Stats Elevation 502 ft / 153 m (AMSL)
Location 40.508653° -122.293102°
Runways 2
Magnetic Variation 14.086° E

METAR

KRDD 120453Z 02004KT 10SM CLR 04/00 A3032 RMK AO2 SLP268 T00440000

Decode

TAF

TAF KRDD 112326Z 1200/1224 VRB05KT P6SM SKC FM122000 36006KT P6SM SKC

Decode

Destination Runways

ID Width Length Bearing (true) Bearing (mag) Surface Threshold Offset Overrun Length
12 150 ft / 46 m 5,067 ft / 1,545 m 140.20° 126.11° Asphalt 0 ft / 0 m 0 ft / 0 m
16 150 ft / 46 m 7,015 ft / 2,138 m 180.07° 165.98° Asphalt 0 ft / 0 m 0 ft / 0 m
30 150 ft / 46 m 5,067 ft / 1,545 m 320.21° 306.12° Asphalt 498 ft / 152 m 0 ft / 0 m
34 150 ft / 46 m 7,015 ft / 2,138 m 0.07° 345.98° Asphalt 0 ft / 0 m 0 ft / 0 m

Approach Navaids

Runway Type Ident Frequency Range Bearing (true) Bearing (mag) Slope Elevation
34 Localiser IRDD 108.70 MHz 18 nm / 33 km 0.07° 345.99° - 508 ft / 155 m (AMSL)
34 Glidescope IRDD 108.70 MHz 10 nm / 19 km 0.07° 345.99° 3.00° 490 ft / 149 m (AMSL)